Time;durP1;ratioP1;P1;durP2;ratioP2;P2;SDS_P1;SDS_P2;PMS_P1;PMS_P2;Temp;Humidity;BMP_temperature;BMP_pressure;BME280_temperature;BME280_humidity;BME280_pressure;Samples;Min_cycle;Max_cycle;Signal;HPM_P1;HPM_P2
2024/01/14 00:01:24;;;;;;;;;;;;;;;;;;5057788;28;19920;-74
2024/01/14 00:03:49;;;;;;;;;;;;;;;;;;5043203;28;19913;-74
2024/01/14 00:06:15;;;;;;;;;;;;;;;;;;5041350;28;20356;-72
2024/01/14 00:08:40;;;;;;;;;;;;;;;;;;5043810;28;19955;-75
2024/01/14 00:11:07;;;;;;;;;;;;;;;;;;5039990;28;20134;-74
2024/01/14 00:13:32;;;;;;;;;;;;;;;;;;5027553;28;19991;-73
2024/01/14 00:15:58;;;;;;;;;;;;;;;;;;5041499;28;19924;-74
2024/01/14 00:18:23;;;;;;;;;;;;;;;;;;5036947;28;19956;-72
2024/01/14 00:20:49;;;;;;;;;;;;;;;;;;5036187;28;19925;-72
2024/01/14 00:23:14;;;;;;;;;;;;;;;;;;5034983;28;20023;-70
2024/01/14 00:25:39;;;;;;;;;;;;;;;;;;5039586;28;20016;-73
2024/01/14 00:28:05;;;;;;;;;;;;;;;;;;5050258;28;19921;-71
2024/01/14 00:30:30;;;;;;;;;;;;;;;;;;5042604;28;19920;-71
2024/01/14 00:32:55;;;;;;;;;;;;;;;;;;5037114;28;20374;-72
2024/01/14 00:35:20;;;;;;;;;;;;;;;;;;5037998;28;20004;-71
2024/01/14 00:37:47;;;;;;;;;;;;;;;;;;5036357;28;20003;-72
2024/01/14 00:40:13;;;;;;;;;;;;;;;;;;5071398;28;19955;-70
2024/01/14 00:42:38;;;;;;;;;;;;;;;;;;5031341;28;20077;-70
2024/01/14 00:45:03;;;;;;;;;;;;;;;;;;5035761;28;19928;-71
2024/01/14 00:47:30;;;;;;;;;;;;;;;;;;5053119;28;20394;-70
2024/01/14 00:49:58;;;;;;;;;;;;;;;;;;5026446;28;19928;-71
2024/01/14 00:52:25;;;;;;;;;;;;;;;;;;5039733;28;19920;-71
2024/01/14 00:54:51;;;;;;;;;;;;;;;;;;5036019;28;19916;-71
2024/01/14 00:57:16;;;;;;;;;;;;;;;;;;5051950;28;21121;-70
2024/01/14 00:59:41;;;;;;;;;;;;;;;;;;5037837;28;19927;-71
2024/01/14 01:02:07;;;;;;;;;;;;;;;;;;5021555;28;19955;-70
2024/01/14 01:04:33;;;;;;;;;;;;;;;;;;5039356;28;19921;-70
2024/01/14 01:06:58;;;;;;;;;;;;;;;;;;5058422;28;20162;-72
2024/01/14 01:09:24;;;;;;;;;;;;;;;;;;5036691;28;19931;-71
2024/01/14 01:11:49;;;;;;;;;;;;;;;;;;5055976;28;19917;-71
2024/01/14 01:14:15;;;;;;;;;;;;;;;;;;5029433;28;19920;-71
2024/01/14 01:16:40;;;;;;;;;;;;;;;;;;5071867;28;19920;-71
2024/01/14 01:19:05;;;;;;;;;;;;;;;;;;5037422;28;20296;-70
2024/01/14 01:21:31;;;;;;;;;;;;;;;;;;5035777;28;20372;-71
2024/01/14 01:23:56;;;;;;;;;;;;;;;;;;5066442;28;19967;-71
2024/01/14 01:26:23;;;;;;;;;;;;;;;;;;5051027;28;19921;-71
2024/01/14 01:28:48;;;;;;;;;;;;;;;;;;5028793;28;20326;-70
2024/01/14 01:31:13;;;;;;;;;;;;;;;;;;5048673;28;19920;-70
2024/01/14 01:33:41;;;;;;;;;;;;;;;;;;5037634;28;19952;-70
2024/01/14 01:36:10;;;;;;;;;;;;;;;;;;5024326;28;20252;-70
2024/01/14 01:38:35;;;;;;;;;;;;;;;;;;5037792;28;19920;-71
2024/01/14 01:41:00;;;;;;;;;;;;;;;;;;5030132;28;19920;-70
2024/01/14 01:43:28;;;;;;;;;;;;;;;;;;5050214;28;19931;-71
2024/01/14 01:45:53;;;;;;;;;;;;;;;;;;5026051;28;20471;-71
2024/01/14 01:48:19;;;;;;;;;;;;;;;;;;5069388;28;19921;-72
2024/01/14 01:50:49;;;;;;;;;;;;;;;;;;5037105;28;19986;-71
2024/01/14 01:53:17;;;;;;;;;;;;;;;;;;5035615;28;20292;-71
2024/01/14 01:55:42;;;;;;;;;;;;;;;;;;5034675;28;19971;-71
2024/01/14 01:58:07;;;;;;;;;;;;;;;;;;5032476;28;19992;-72
2024/01/14 02:00:34;;;;;;;;;;;;;;;;;;5037875;28;20023;-70
2024/01/14 02:02:59;;;;;;;;;;;;;;;;;;5006332;28;19962;-70
2024/01/14 02:05:25;;;;;;;;;;;;;;;;;;5052786;28;19979;-71
2024/01/14 02:11:07;;;;;;;;;;;;;;;;;;5038478;28;20059;-70
2024/01/14 02:13:32;;;;;;;;;;;;;;;;;;5037585;28;19928;-71
2024/01/14 02:15:57;;;;;;;;;;;;;;;;;;5040127;28;19921;-71
2024/01/14 02:18:23;;;;;;;;;;;;;;;;;;5036909;28;20315;-71
2024/01/14 02:20:51;;;;;;;;;;;;;;;;;;5068075;28;19965;-71
2024/01/14 02:23:16;;;;;;;;;;;;;;;;;;5036759;28;19921;-71
2024/01/14 02:25:44;;;;;;;;;;;;;;;;;;5040770;28;19917;-71
2024/01/14 02:28:12;;;;;;;;;;;;;;;;;;5022096;28;19916;-70
2024/01/14 02:30:37;;;;;;;;;;;;;;;;;;5047531;28;20358;-71
2024/01/14 02:33:02;;;;;;;;;;;;;;;;;;5072857;28;20538;-70
2024/01/14 02:35:28;;;;;;;;;;;;;;;;;;5040322;28;19943;-71
2024/01/14 02:37:55;;;;;;;;;;;;;;;;;;5041786;28;19924;-71
2024/01/14 02:40:21;;;;;;;;;;;;;;;;;;5071986;28;20064;-71
2024/01/14 02:42:46;;;;;;;;;;;;;;;;;;5024216;28;19916;-71
2024/01/14 02:45:12;;;;;;;;;;;;;;;;;;5041434;28;19943;-71
2024/01/14 02:47:41;;;;;;;;;;;;;;;;;;5046185;28;19983;-71
2024/01/14 02:50:06;;;;;;;;;;;;;;;;;;5038860;28;19974;-71
2024/01/14 02:52:32;;;;;;;;;;;;;;;;;;5038411;28;19917;-71
2024/01/14 02:54:57;;;;;;;;;;;;;;;;;;5038702;28;19925;-70
2024/01/14 02:57:23;;;;;;;;;;;;;;;;;;5037661;28;19920;-70
2024/01/14 02:59:49;;;;;;;;;;;;;;;;;;5023274;28;19913;-71
2024/01/14 03:02:14;;;;;;;;;;;;;;;;;;5038127;28;19968;-71
2024/01/14 03:04:39;;;;;;;;;;;;;;;;;;5037142;28;19917;-70
2024/01/14 03:07:05;;;;;;;;;;;;;;;;;;5037325;28;20008;-71
2024/01/14 03:09:30;;;;;;;;;;;;;;;;;;5037179;28;19924;-71
2024/01/14 03:11:55;;;;;;;;;;;;;;;;;;5065944;28;20315;-72
2024/01/14 03:14:21;;;;;;;;;;;;;;;;;;5037576;28;20361;-71
2024/01/14 03:16:46;;;;;;;;;;;;;;;;;;5039735;28;19921;-70
2024/01/14 03:19:14;;;;;;;;;;;;;;;;;;5038570;28;19923;-70
2024/01/14 03:21:39;;;;;;;;;;;;;;;;;;5071340;28;19932;-71
2024/01/14 03:24:05;;;;;;;;;;;;;;;;;;5037264;28;19916;-71
2024/01/14 03:26:30;;;;;;;;;;;;;;;;;;5035628;28;20644;-71
2024/01/14 03:28:55;;;;;;;;;;;;;;;;;;5037697;28;19921;-71
2024/01/14 03:31:21;;;;;;;;;;;;;;;;;;5053774;28;19955;-71
2024/01/14 03:33:46;;;;;;;;;;;;;;;;;;5033972;28;19943;-72
2024/01/14 03:36:14;;;;;;;;;;;;;;;;;;5057395;28;19940;-70
2024/01/14 03:38:39;;;;;;;;;;;;;;;;;;5009140;28;19921;-71
2024/01/14 03:41:05;;;;;;;;;;;;;;;;;;5072518;28;19917;-71
2024/01/14 03:43:30;;;;;;;;;;;;;;;;;;5032336;28;19995;-72
2024/01/14 03:45:55;;;;;;;;;;;;;;;;;;5069936;28;19921;-72
2024/01/14 03:48:23;;;;;;;;;;;;;;;;;;5011381;28;20444;-72
2024/01/14 03:50:49;;;;;;;;;;;;;;;;;;5039101;28;19924;-71
2024/01/14 03:53:14;;;;;;;;;;;;;;;;;;5054004;28;19968;-72
2024/01/14 03:55:40;;;;;;;;;;;;;;;;;;5042404;28;20321;-73
2024/01/14 03:58:07;;;;;;;;;;;;;;;;;;5033080;28;20023;-71
2024/01/14 04:00:33;;;;;;;;;;;;;;;;;;5036267;28;19916;-72
2024/01/14 04:02:58;;;;;;;;;;;;;;;;;;5017875;28;19974;-72
2024/01/14 04:05:24;;;;;;;;;;;;;;;;;;5035503;28;19917;-72
2024/01/14 04:07:49;;;;;;;;;;;;;;;;;;5035784;28;20007;-71
2024/01/14 04:10:15;;;;;;;;;;;;;;;;;;5035829;28;19978;-72
2024/01/14 04:12:41;;;;;;;;;;;;;;;;;;5034986;28;20285;-72
2024/01/14 04:15:06;;;;;;;;;;;;;;;;;;5052798;28;19955;-72
2024/01/14 04:17:34;;;;;;;;;;;;;;;;;;5035887;28;19917;-71
2024/01/14 04:19:59;;;;;;;;;;;;;;;;;;5053828;28;19931;-71
2024/01/14 04:22:25;;;;;;;;;;;;;;;;;;5035787;28;19916;-71
2024/01/14 04:24:50;;;;;;;;;;;;;;;;;;5034405;28;19952;-71
2024/01/14 04:27:15;;;;;;;;;;;;;;;;;;5038578;28;19927;-71
2024/01/14 04:29:41;;;;;;;;;;;;;;;;;;5035156;28;20441;-72
2024/01/14 04:32:06;;;;;;;;;;;;;;;;;;5020241;28;19931;-71
2024/01/14 04:34:32;;;;;;;;;;;;;;;;;;5016417;28;19920;-70
2024/01/14 04:36:57;;;;;;;;;;;;;;;;;;5037954;28;19970;-71
2024/01/14 04:39:23;;;;;;;;;;;;;;;;;;5051685;28;19916;-71
2024/01/14 04:41:48;;;;;;;;;;;;;;;;;;5044805;28;19921;-71
2024/01/14 04:44:14;;;;;;;;;;;;;;;;;;5037022;28;19920;-71
2024/01/14 04:46:39;;;;;;;;;;;;;;;;;;5036575;28;19950;-72
2024/01/14 04:49:04;;;;;;;;;;;;;;;;;;5033880;28;20016;-71
2024/01/14 04:51:30;;;;;;;;;;;;;;;;;;5046421;28;20055;-71
2024/01/14 04:53:58;;;;;;;;;;;;;;;;;;5036125;28;20549;-71
2024/01/14 04:56:24;;;;;;;;;;;;;;;;;;5041777;28;20506;-71
2024/01/14 04:58:49;;;;;;;;;;;;;;;;;;5030261;28;19927;-71
2024/01/14 05:01:14;;;;;;;;;;;;;;;;;;5032603;28;19936;-71
2024/01/14 05:03:40;;;;;;;;;;;;;;;;;;5032936;28;20363;-71
2024/01/14 05:06:05;;;;;;;;;;;;;;;;;;5069529;28;19920;-71
2024/01/14 05:08:31;;;;;;;;;;;;;;;;;;5024935;28;19959;-71
2024/01/14 05:10:56;;;;;;;;;;;;;;;;;;5068710;28;20497;-70
2024/01/14 05:13:22;;;;;;;;;;;;;;;;;;5032682;28;20367;-71
2024/01/14 05:15:50;;;;;;;;;;;;;;;;;;5035301;28;19920;-71
2024/01/14 05:18:15;;;;;;;;;;;;;;;;;;5036024;28;20015;-71
2024/01/14 05:20:41;;;;;;;;;;;;;;;;;;5038511;28;19921;-72
2024/01/14 05:23:08;;;;;;;;;;;;;;;;;;5047195;28;19921;-72
2024/01/14 05:25:33;;;;;;;;;;;;;;;;;;5034239;28;20406;-72
2024/01/14 05:27:58;;;;;;;;;;;;;;;;;;5035840;28;19917;-72
2024/01/14 05:30:26;;;;;;;;;;;;;;;;;;5036528;28;19994;-72
2024/01/14 05:32:52;;;;;;;;;;;;;;;;;;5035778;28;20011;-72
2024/01/14 05:35:17;;;;;;;;;;;;;;;;;;5035172;28;21469;-70
2024/01/14 05:37:42;;;;;;;;;;;;;;;;;;5033132;28;19940;-71
2024/01/14 05:40:08;;;;;;;;;;;;;;;;;;5037191;28;19962;-71
2024/01/14 05:42:34;;;;;;;;;;;;;;;;;;5028509;28;20487;-72
2024/01/14 05:44:59;;;;;;;;;;;;;;;;;;5026341;28;19913;-72
2024/01/14 05:47:27;;;;;;;;;;;;;;;;;;5037007;28;19921;-71
2024/01/14 05:49:53;;;;;;;;;;;;;;;;;;5049714;28;19978;-71
2024/01/14 05:52:18;;;;;;;;;;;;;;;;;;5008143;28;19920;-71
2024/01/14 05:54:46;;;;;;;;;;;;;;;;;;5036089;28;19925;-71
2024/01/14 05:57:11;;;;;;;;;;;;;;;;;;5063099;28;19926;-71
2024/01/14 05:59:37;;;;;;;;;;;;;;;;;;5047876;28;19920;-71
2024/01/14 06:02:02;;;;;;;;;;;;;;;;;;5036064;28;19924;-71
2024/01/14 06:04:27;;;;;;;;;;;;;;;;;;5024298;28;19921;-70
2024/01/14 06:06:53;;;;;;;;;;;;;;;;;;5033884;28;19921;-71
2024/01/14 06:09:21;;;;;;;;;;;;;;;;;;5031139;28;19921;-71
2024/01/14 06:11:46;;;;;;;;;;;;;;;;;;5061385;28;20445;-70
2024/01/14 06:14:11;;;;;;;;;;;;;;;;;;5032651;28;19931;-72
2024/01/14 06:16:39;;;;;;;;;;;;;;;;;;5032797;28;19920;-71
2024/01/14 06:19:07;;;;;;;;;;;;;;;;;;5050464;28;20391;-69
2024/01/14 06:21:33;;;;;;;;;;;;;;;;;;5038207;28;20042;-72
2024/01/14 06:23:58;;;;;;;;;;;;;;;;;;5066583;28;19929;-72
2024/01/14 06:26:23;;;;;;;;;;;;;;;;;;5034775;28;20101;-73
2024/01/14 06:28:49;;;;;;;;;;;;;;;;;;5034450;28;20295;-73
2024/01/14 06:31:15;;;;;;;;;;;;;;;;;;5017153;28;19916;-73
2024/01/14 06:33:40;;;;;;;;;;;;;;;;;;5047917;28;20590;-73
2024/01/14 06:36:06;;;;;;;;;;;;;;;;;;5047943;28;20334;-72
2024/01/14 06:38:32;;;;;;;;;;;;;;;;;;5035563;28;20859;-71
2024/01/14 06:40:57;;;;;;;;;;;;;;;;;;5067118;28;20402;-73
2024/01/14 06:43:22;;;;;;;;;;;;;;;;;;5033494;28;20269;-71
2024/01/14 06:45:49;;;;;;;;;;;;;;;;;;5033672;28;19947;-71
2024/01/14 06:48:14;;;;;;;;;;;;;;;;;;5067584;28;19924;-71
2024/01/14 06:50:39;;;;;;;;;;;;;;;;;;5035178;28;20018;-71
2024/01/14 06:53:05;;;;;;;;;;;;;;;;;;5034846;28;19933;-70
2024/01/14 06:55:30;;;;;;;;;;;;;;;;;;5035816;28;19928;-71
2024/01/14 06:57:56;;;;;;;;;;;;;;;;;;5035392;28;19959;-71
2024/01/14 07:00:21;;;;;;;;;;;;;;;;;;5037340;28;19948;-72
2024/01/14 07:02:46;;;;;;;;;;;;;;;;;;5055077;28;20447;-71
2024/01/14 07:05:12;;;;;;;;;;;;;;;;;;5039541;28;19977;-71
2024/01/14 07:07:37;;;;;;;;;;;;;;;;;;5038231;28;19921;-71
2024/01/14 07:10:03;;;;;;;;;;;;;;;;;;5027926;28;19929;-71
2024/01/14 07:12:28;;;;;;;;;;;;;;;;;;5071484;28;20489;-71
2024/01/14 07:14:54;;;;;;;;;;;;;;;;;;5040031;28;19921;-70
2024/01/14 07:17:19;;;;;;;;;;;;;;;;;;5069940;28;19921;-70
2024/01/14 07:19:44;;;;;;;;;;;;;;;;;;5038550;28;19987;-70
2024/01/14 07:22:10;;;;;;;;;;;;;;;;;;5053226;28;19952;-70
2024/01/14 07:24:35;;;;;;;;;;;;;;;;;;5038811;28;19917;-70
2024/01/14 07:27:04;;;;;;;;;;;;;;;;;;5012240;28;19920;-70
2024/01/14 07:29:29;;;;;;;;;;;;;;;;;;5036789;28;20006;-72
2024/01/14 07:31:58;;;;;;;;;;;;;;;;;;5049910;28;19928;-72
2024/01/14 07:34:25;;;;;;;;;;;;;;;;;;5033396;28;19921;-72
2024/01/14 07:36:51;;;;;;;;;;;;;;;;;;5064174;28;19922;-71
2024/01/14 07:39:16;;;;;;;;;;;;;;;;;;5040333;28;19921;-72
2024/01/14 07:41:42;;;;;;;;;;;;;;;;;;5037640;28;20016;-73
2024/01/14 07:44:07;;;;;;;;;;;;;;;;;;5018292;28;19931;-73
2024/01/14 07:46:33;;;;;;;;;;;;;;;;;;5033587;28;19913;-72
2024/01/14 07:48:58;;;;;;;;;;;;;;;;;;5036446;28;20477;-72
2024/01/14 07:51:23;;;;;;;;;;;;;;;;;;5018919;28;19991;-72
2024/01/14 07:53:49;;;;;;;;;;;;;;;;;;5032582;28;19928;-71
2024/01/14 07:56:14;;;;;;;;;;;;;;;;;;5052526;28;19952;-72
2024/01/14 07:58:40;;;;;;;;;;;;;;;;;;5025997;28;19943;-71
2024/01/14 08:01:06;;;;;;;;;;;;;;;;;;5037860;28;20526;-73
2024/01/14 08:03:31;;;;;;;;;;;;;;;;;;5052742;28;19920;-72
2024/01/14 08:09:14;;;;;;;;;;;;;;;;;;5037610;28;19978;-71
2024/01/14 08:11:39;;;;;;;;;;;;;;;;;;5034340;28;19979;-72
2024/01/14 08:14:05;;;;;;;;;;;;;;;;;;5051903;28;20007;-71
2024/01/14 08:16:30;;;;;;;;;;;;;;;;;;5034631;28;20583;-70
2024/01/14 08:18:55;;;;;;;;;;;;;;;;;;5035146;28;19966;-72
2024/01/14 08:21:23;;;;;;;;;;;;;;;;;;5050273;28;20296;-72
2024/01/14 08:23:49;;;;;;;;;;;;;;;;;;5036134;28;19963;-72
2024/01/14 08:26:17;;;;;;;;;;;;;;;;;;5054002;28;20572;-72
2024/01/14 08:28:42;;;;;;;;;;;;;;;;;;5035024;28;19921;-71
2024/01/14 08:31:07;;;;;;;;;;;;;;;;;;5051225;28;20365;-72
2024/01/14 08:33:33;;;;;;;;;;;;;;;;;;5049026;28;19920;-71
2024/01/14 08:35:58;;;;;;;;;;;;;;;;;;5047029;28;20587;-71
2024/01/14 08:38:26;;;;;;;;;;;;;;;;;;5035382;28;19917;-72
2024/01/14 08:40:52;;;;;;;;;;;;;;;;;;5007351;28;20406;-72
2024/01/14 08:43:17;;;;;;;;;;;;;;;;;;5023880;28;20421;-71
2024/01/14 08:45:42;;;;;;;;;;;;;;;;;;5052492;28;19967;-71
2024/01/14 08:48:07;;;;;;;;;;;;;;;;;;5033631;28;19971;-72
2024/01/14 08:50:33;;;;;;;;;;;;;;;;;;5034644;28;20366;-71
2024/01/14 08:52:58;;;;;;;;;;;;;;;;;;5049557;28;20257;-71
2024/01/14 08:55:28;;;;;;;;;;;;;;;;;;5023886;28;19921;-72
2024/01/14 08:57:54;;;;;;;;;;;;;;;;;;5017581;28;19979;-71
2024/01/14 09:00:22;;;;;;;;;;;;;;;;;;5032856;28;20352;-71
2024/01/14 09:02:47;;;;;;;;;;;;;;;;;;5065551;28;19927;-72
2024/01/14 09:05:13;;;;;;;;;;;;;;;;;;5034642;28;20335;-70
2024/01/14 09:07:38;;;;;;;;;;;;;;;;;;5019179;28;19921;-70
2024/01/14 09:10:07;;;;;;;;;;;;;;;;;;5034420;28;19983;-70
2024/01/14 09:12:35;;;;;;;;;;;;;;;;;;5033606;28;19920;-70
2024/01/14 09:15:04;;;;;;;;;;;;;;;;;;5035544;28;20027;-71
2024/01/14 09:17:30;;;;;;;;;;;;;;;;;;5036357;28;19913;-71
2024/01/14 09:19:55;;;;;;;;;;;;;;;;;;5036075;28;20282;-70
2024/01/14 09:22:20;;;;;;;;;;;;;;;;;;5064785;28;19925;-70
2024/01/14 09:24:48;;;;;;;;;;;;;;;;;;5048097;28;19921;-70
2024/01/14 09:27:14;;;;;;;;;;;;;;;;;;5066019;28;20015;-70
2024/01/14 09:29:40;;;;;;;;;;;;;;;;;;5060794;28;20043;-70
2024/01/14 09:32:08;;;;;;;;;;;;;;;;;;5026180;28;19917;-70
2024/01/14 09:34:33;;;;;;;;;;;;;;;;;;5030118;28;19924;-70
2024/01/14 09:37:01;;;;;;;;;;;;;;;;;;5044184;28;19931;-71
2024/01/14 09:39:29;;;;;;;;;;;;;;;;;;5043909;28;19925;-73
2024/01/14 09:41:54;;;;;;;;;;;;;;;;;;5029948;28;19917;-71
2024/01/14 09:44:22;;;;;;;;;;;;;;;;;;5049665;28;19931;-71
2024/01/14 09:46:47;;;;;;;;;;;;;;;;;;5014593;28;19924;-72
2024/01/14 09:49:12;;;;;;;;;;;;;;;;;;5044153;28;19920;-70
2024/01/14 09:51:39;;;;;;;;;;;;;;;;;;5017405;28;19969;-70
2024/01/14 09:54:04;;;;;;;;;;;;;;;;;;5028519;28;20533;-70
2024/01/14 09:56:29;;;;;;;;;;;;;;;;;;5033256;28;20279;-70
2024/01/14 09:58:54;;;;;;;;;;;;;;;;;;5063202;28;19933;-71
2024/01/14 10:01:20;;;;;;;;;;;;;;;;;;5064684;28;20346;-70
2024/01/14 10:03:47;;;;;;;;;;;;;;;;;;5066413;28;19959;-71
2024/01/14 10:06:15;;;;;;;;;;;;;;;;;;5017548;28;19932;-73
2024/01/14 10:08:41;;;;;;;;;;;;;;;;;;5031091;28;19924;-72
2024/01/14 10:11:06;;;;;;;;;;;;;;;;;;5046893;28;19927;-71
2024/01/14 10:13:32;;;;;;;;;;;;;;;;;;5014556;28;19921;-71
2024/01/14 10:15:58;;;;;;;;;;;;;;;;;;5032084;28;19982;-71
2024/01/14 10:18:25;;;;;;;;;;;;;;;;;;5034428;28;19921;-71
2024/01/14 10:20:53;;;;;;;;;;;;;;;;;;5031100;28;19932;-71
2024/01/14 10:23:18;;;;;;;;;;;;;;;;;;5022264;28;19964;-71
2024/01/14 10:25:44;;;;;;;;;;;;;;;;;;5048490;28;19975;-71
2024/01/14 10:28:09;;;;;;;;;;;;;;;;;;5017435;28;19952;-70
2024/01/14 10:30:35;;;;;;;;;;;;;;;;;;5051344;28;19928;-72
2024/01/14 10:33:07;;;;;;;;;;;;;;;;;;5054593;28;20368;-74
2024/01/14 10:35:33;;;;;;;;;;;;;;;;;;5014601;28;20043;-70
2024/01/14 10:37:58;;;;;;;;;;;;;;;;;;5016541;28;19921;-71
2024/01/14 10:40:24;;;;;;;;;;;;;;;;;;5038054;28;19913;-71
2024/01/14 10:42:49;;;;;;;;;;;;;;;;;;5036842;28;19916;-71
2024/01/14 10:45:15;;;;;;;;;;;;;;;;;;5054470;28;20576;-71
2024/01/14 10:47:43;;;;;;;;;;;;;;;;;;5035685;28;20062;-70
2024/01/14 10:50:12;;;;;;;;;;;;;;;;;;5034195;28;19931;-70
2024/01/14 10:52:39;;;;;;;;;;;;;;;;;;5053726;28;19917;-72
2024/01/14 10:55:09;;;;;;;;;;;;;;;;;;5018387;28;20354;-71
2024/01/14 10:57:35;;;;;;;;;;;;;;;;;;5024131;28;19921;-75
2024/01/14 11:03:16;;;;;;;;;;;;;;;;;;5037494;28;19970;-71
2024/01/14 11:05:42;;;;;;;;;;;;;;;;;;5051223;28;19942;-71
2024/01/14 11:08:07;;;;;;;;;;;;;;;;;;5035770;28;19967;-71
2024/01/14 11:10:33;;;;;;;;;;;;;;;;;;5025163;28;19929;-73
2024/01/14 11:12:58;;;;;;;;;;;;;;;;;;5037040;28;19939;-72
2024/01/14 11:15:24;;;;;;;;;;;;;;;;;;5035822;28;19952;-70
2024/01/14 11:17:50;;;;;;;;;;;;;;;;;;5036151;28;19917;-71
2024/01/14 11:20:15;;;;;;;;;;;;;;;;;;5052756;28;19916;-73
2024/01/14 11:22:40;;;;;;;;;;;;;;;;;;5036967;28;20442;-71
2024/01/14 11:25:06;;;;;;;;;;;;;;;;;;5038487;28;20481;-73
2024/01/14 11:27:31;;;;;;;;;;;;;;;;;;5052181;28;19921;-73
2024/01/14 11:29:58;;;;;;;;;;;;;;;;;;5039930;28;20395;-72
2024/01/14 11:32:23;;;;;;;;;;;;;;;;;;5038148;28;19955;-72
2024/01/14 11:34:49;;;;;;;;;;;;;;;;;;5042568;28;20004;-74
2024/01/14 11:37:14;;;;;;;;;;;;;;;;;;5033849;28;19921;-75
2024/01/14 11:39:39;;;;;;;;;;;;;;;;;;5052108;28;19925;-74
2024/01/14 11:42:05;;;;;;;;;;;;;;;;;;5036081;28;19927;-74
2024/01/14 11:44:33;;;;;;;;;;;;;;;;;;5035667;28;20213;-72
2024/01/14 11:46:58;;;;;;;;;;;;;;;;;;5033634;28;20019;-72
2024/01/14 11:49:24;;;;;;;;;;;;;;;;;;5053486;28;19970;-72
2024/01/14 11:51:49;;;;;;;;;;;;;;;;;;5038426;28;19917;-73
2024/01/14 11:54:15;;;;;;;;;;;;;;;;;;5034181;28;19983;-73
2024/01/14 11:56:40;;;;;;;;;;;;;;;;;;5036748;28;19970;-73
2024/01/14 11:59:05;;;;;;;;;;;;;;;;;;5036172;28;19964;-74
2024/01/14 12:04:18;;;;;;;;;;;;;;;;;;5035560;28;19936;-73
2024/01/14 12:06:44;;;;;;;;;;;;;;;;;;5068125;28;19927;-72
2024/01/14 12:09:09;;;;;;;;;;;;;;;;;;5069374;28;19932;-73
2024/01/14 12:11:34;;;;;;;;;;;;;;;;;;5051874;28;19917;-71
2024/01/14 12:14:00;;;;;;;;;;;;;;;;;;5032105;28;19928;-73
2024/01/14 12:16:25;;;;;;;;;;;;;;;;;;5011974;28;19921;-71
2024/01/14 12:18:50;;;;;;;;;;;;;;;;;;5065326;28;20900;-70
2024/01/14 12:21:18;;;;;;;;;;;;;;;;;;5066530;28;19920;-71
2024/01/14 12:23:44;;;;;;;;;;;;;;;;;;5036750;28;19956;-71
2024/01/14 12:26:09;;;;;;;;;;;;;;;;;;5036658;28;19927;-70
2024/01/14 12:28:37;;;;;;;;;;;;;;;;;;5035931;28;19920;-70
2024/01/14 12:31:05;;;;;;;;;;;;;;;;;;5018575;28;19928;-68
2024/01/14 12:33:46;;;;;;;;;;;;;;;;;;5058262;28;20006;-70
2024/01/14 12:36:12;;;;;;;;;;;;;;;;;;5017056;28;20380;-69
2024/01/14 12:38:43;;;;;;;;;;;;;;;;;;5062593;28;19927;-68
2024/01/14 12:41:14;;;;;;;;;;;;;;;;;;5027539;28;20014;-68
2024/01/14 12:43:46;;;;;;;;;;;;;;;;;;5028968;28;19921;-68
2024/01/14 12:46:12;;;;;;;;;;;;;;;;;;5052675;28;20302;-70
2024/01/14 12:48:40;;;;;;;;;;;;;;;;;;5034857;28;20384;-69
2024/01/14 12:51:05;;;;;;;;;;;;;;;;;;5033589;28;19927;-70
2024/01/14 12:53:33;;;;;;;;;;;;;;;;;;5055602;28;20584;-70
2024/01/14 12:55:59;;;;;;;;;;;;;;;;;;5033451;28;20265;-69
2024/01/14 12:58:24;;;;;;;;;;;;;;;;;;5033907;28;20355;-72
2024/01/14 13:00:52;;;;;;;;;;;;;;;;;;5068473;28;19943;-70
2024/01/14 13:03:18;;;;;;;;;;;;;;;;;;5028962;28;20408;-71
2024/01/14 13:05:43;;;;;;;;;;;;;;;;;;5031762;28;19928;-68
2024/01/14 13:08:11;;;;;;;;;;;;;;;;;;5046709;28;19995;-70
2024/01/14 13:10:36;;;;;;;;;;;;;;;;;;5033484;28;20007;-70
2024/01/14 13:13:02;;;;;;;;;;;;;;;;;;5043446;28;20091;-70
2024/01/14 13:15:27;;;;;;;;;;;;;;;;;;5060882;28;19982;-69
2024/01/14 13:17:56;;;;;;;;;;;;;;;;;;5047174;28;20038;-69
2024/01/14 13:20:21;;;;;;;;;;;;;;;;;;5029231;28;19927;-69
2024/01/14 13:22:49;;;;;;;;;;;;;;;;;;5038774;28;20335;-70
2024/01/14 13:25:15;;;;;;;;;;;;;;;;;;5067528;28;19924;-69
2024/01/14 13:27:40;;;;;;;;;;;;;;;;;;5060883;28;19917;-68
2024/01/14 13:30:09;;;;;;;;;;;;;;;;;;5032905;28;19925;-69
2024/01/14 13:32:40;;;;;;;;;;;;;;;;;;5043237;28;20352;-68
2024/01/14 13:35:06;;;;;;;;;;;;;;;;;;5013510;28;19968;-68
2024/01/14 13:37:31;;;;;;;;;;;;;;;;;;5021917;28;20020;-68
2024/01/14 13:40:02;;;;;;;;;;;;;;;;;;5040416;28;19920;-69
2024/01/14 13:42:27;;;;;;;;;;;;;;;;;;5014289;28;20173;-69
2024/01/14 13:44:55;;;;;;;;;;;;;;;;;;5034352;28;19921;-69
2024/01/14 13:47:20;;;;;;;;;;;;;;;;;;5009740;28;19912;-69
2024/01/14 13:49:48;;;;;;;;;;;;;;;;;;5033715;28;19974;-69
2024/01/14 13:52:16;;;;;;;;;;;;;;;;;;5047875;28;20878;-69
2024/01/14 13:54:42;;;;;;;;;;;;;;;;;;5035818;28;19924;-68
2024/01/14 13:57:10;;;;;;;;;;;;;;;;;;5029566;28;19921;-68
2024/01/14 13:59:38;;;;;;;;;;;;;;;;;;5049027;28;19920;-69
2024/01/14 14:02:06;;;;;;;;;;;;;;;;;;5051668;28;20791;-69
2024/01/14 14:04:31;;;;;;;;;;;;;;;;;;5014758;28;19960;-70
2024/01/14 14:07:01;;;;;;;;;;;;;;;;;;5033187;28;19973;-70
2024/01/14 14:09:33;;;;;;;;;;;;;;;;;;5053376;28;19929;-70
2024/01/14 14:11:58;;;;;;;;;;;;;;;;;;5010197;28;20019;-69
2024/01/14 14:14:26;;;;;;;;;;;;;;;;;;5036260;28;20315;-68
2024/01/14 14:16:54;;;;;;;;;;;;;;;;;;5036137;28;19993;-69
2024/01/14 14:19:19;;;;;;;;;;;;;;;;;;5036318;28;20353;-70
2024/01/14 14:21:48;;;;;;;;;;;;;;;;;;5030256;28;20316;-68
2024/01/14 14:24:14;;;;;;;;;;;;;;;;;;5068100;28;20456;-69
2024/01/14 14:26:39;;;;;;;;;;;;;;;;;;5053206;28;19921;-69
2024/01/14 14:29:05;;;;;;;;;;;;;;;;;;5069833;28;20510;-69
2024/01/14 14:34:47;;;;;;;;;;;;;;;;;;5038975;28;19940;-69
2024/01/14 14:37:16;;;;;;;;;;;;;;;;;;5030529;28;19948;-69
2024/01/14 14:39:41;;;;;;;;;;;;;;;;;;5036980;28;19917;-70
2024/01/14 14:42:07;;;;;;;;;;;;;;;;;;5036271;28;20352;-70
2024/01/14 14:44:34;;;;;;;;;;;;;;;;;;5051256;28;19921;-69
2024/01/14 14:47:00;;;;;;;;;;;;;;;;;;5038934;28;19998;-70
2024/01/14 14:49:27;;;;;;;;;;;;;;;;;;5036047;28;20020;-69
2024/01/14 14:51:57;;;;;;;;;;;;;;;;;;5053256;28;19974;-69
2024/01/14 14:54:23;;;;;;;;;;;;;;;;;;5050259;28;19923;-69
2024/01/14 14:56:53;;;;;;;;;;;;;;;;;;5034593;28;19924;-70
2024/01/14 14:59:21;;;;;;;;;;;;;;;;;;5065109;28;19921;-68
2024/01/14 15:01:50;;;;;;;;;;;;;;;;;;5053928;28;19916;-68
2024/01/14 15:04:15;;;;;;;;;;;;;;;;;;5036259;28;19920;-69
2024/01/14 15:06:45;;;;;;;;;;;;;;;;;;5038117;28;19917;-70
2024/01/14 15:09:10;;;;;;;;;;;;;;;;;;5052439;28;19925;-70
2024/01/14 15:11:39;;;;;;;;;;;;;;;;;;5030779;28;19921;-70
2024/01/14 15:14:04;;;;;;;;;;;;;;;;;;5045487;28;19917;-68
2024/01/14 15:16:29;;;;;;;;;;;;;;;;;;5050230;28;19916;-69
2024/01/14 15:18:55;;;;;;;;;;;;;;;;;;5047801;28;19920;-70
2024/01/14 15:21:20;;;;;;;;;;;;;;;;;;5038158;28;19924;-70
2024/01/14 15:23:48;;;;;;;;;;;;;;;;;;5036869;28;19923;-69
2024/01/14 15:26:13;;;;;;;;;;;;;;;;;;5019427;28;19971;-71
2024/01/14 15:28:39;;;;;;;;;;;;;;;;;;5038449;28;20055;-72
2024/01/14 15:31:04;;;;;;;;;;;;;;;;;;5050886;28;20348;-71
2024/01/14 15:33:29;;;;;;;;;;;;;;;;;;5027280;28;19923;-70
2024/01/14 15:35:55;;;;;;;;;;;;;;;;;;5049284;28;19924;-70
2024/01/14 15:38:23;;;;;;;;;;;;;;;;;;5034820;28;19927;-69
2024/01/14 15:40:48;;;;;;;;;;;;;;;;;;5052848;28;19917;-69
2024/01/14 15:43:15;;;;;;;;;;;;;;;;;;5065757;28;20532;-70
2024/01/14 15:45:40;;;;;;;;;;;;;;;;;;5053993;28;19940;-69
2024/01/14 15:48:06;;;;;;;;;;;;;;;;;;5034467;28;20368;-69
2024/01/14 15:50:31;;;;;;;;;;;;;;;;;;5038630;28;20305;-69
2024/01/14 15:52:56;;;;;;;;;;;;;;;;;;5033418;28;19917;-69
2024/01/14 15:55:21;;;;;;;;;;;;;;;;;;5037078;28;19925;-69
2024/01/14 15:57:51;;;;;;;;;;;;;;;;;;5033494;28;19929;-70
2024/01/14 16:00:17;;;;;;;;;;;;;;;;;;5035412;28;19924;-70
2024/01/14 16:02:44;;;;;;;;;;;;;;;;;;5044289;28;19917;-70
2024/01/14 16:05:13;;;;;;;;;;;;;;;;;;5037400;28;19920;-70
2024/01/14 16:07:38;;;;;;;;;;;;;;;;;;5035773;28;19927;-70
2024/01/14 16:10:04;;;;;;;;;;;;;;;;;;5033442;28;19982;-70
2024/01/14 16:12:33;;;;;;;;;;;;;;;;;;5050554;28;19921;-69
2024/01/14 16:15:02;;;;;;;;;;;;;;;;;;5041591;28;20376;-70
2024/01/14 16:17:27;;;;;;;;;;;;;;;;;;5044057;28;19916;-69
2024/01/14 16:19:53;;;;;;;;;;;;;;;;;;5049890;28;19946;-69
2024/01/14 16:22:18;;;;;;;;;;;;;;;;;;5035382;28;19928;-70
2024/01/14 16:24:43;;;;;;;;;;;;;;;;;;5067699;28;19917;-68
2024/01/14 16:27:09;;;;;;;;;;;;;;;;;;5052729;28;19920;-71
2024/01/14 16:29:37;;;;;;;;;;;;;;;;;;5049901;28;19958;-69
2024/01/14 16:32:03;;;;;;;;;;;;;;;;;;5031831;28;20031;-70
2024/01/14 16:37:45;;;;;;;;;;;;;;;;;;5023304;28;19971;-69
2024/01/14 16:40:10;;;;;;;;;;;;;;;;;;5027826;28;20391;-69
2024/01/14 16:42:35;;;;;;;;;;;;;;;;;;5038902;28;19927;-70
2024/01/14 16:45:01;;;;;;;;;;;;;;;;;;5045182;28;19963;-69
2024/01/14 16:47:29;;;;;;;;;;;;;;;;;;5024350;28;19947;-69
2024/01/14 16:49:55;;;;;;;;;;;;;;;;;;5035165;28;20070;-70
2024/01/14 16:52:23;;;;;;;;;;;;;;;;;;5033543;28;19991;-69
2024/01/14 16:54:48;;;;;;;;;;;;;;;;;;5035113;28;20159;-70
2024/01/14 16:57:13;;;;;;;;;;;;;;;;;;5031726;28;19928;-70